sensor_id;sensor_type;location;lat;lon;timestamp;pressure;altitude;pressure_sealevel;temperature;humidity
7337;BME280;54510;42.016;23.098;2022-07-23T00:01:26;-21802.19;;;24.44;41.87
7337;BME280;54510;42.016;23.098;2022-07-23T00:03:54;-21799.72;;;24.35;42.35
7337;BME280;54510;42.016;23.098;2022-07-23T00:06:20;-21796.59;;;24.23;42.88
7337;BME280;54510;42.016;23.098;2022-07-23T00:08:45;-21803.69;;;24.50;42.48
7337;BME280;54510;42.016;23.098;2022-07-23T00:11:11;-21802.72;;;24.46;42.44
7337;BME280;54510;42.016;23.098;2022-07-23T00:13:36;-21799.72;;;24.35;42.47
7337;BME280;54510;42.016;23.098;2022-07-23T00:16:02;-21798.09;;;24.29;42.76
7337;BME280;54510;42.016;23.098;2022-07-23T00:18:27;-21792.63;;;24.09;42.90
7337;BME280;54510;42.016;23.098;2022-07-23T00:20:53;-21790.03;;;23.99;43.39
7337;BME280;54510;42.016;23.098;2022-07-23T00:23:18;-21788.53;;;23.93;43.93
7337;BME280;54510;42.016;23.098;2022-07-23T00:25:44;-21791.00;;;24.02;44.06
7337;BME280;54510;42.016;23.098;2022-07-23T00:28:12;-21794.28;;;24.15;43.23
7337;BME280;54510;42.016;23.098;2022-07-23T00:30:38;-21788.28;;;23.92;43.66
7337;BME280;54510;42.016;23.098;2022-07-23T00:33:07;-21787.19;;;23.88;43.82
7337;BME280;54510;42.016;23.098;2022-07-23T00:35:37;-21788.13;;;23.92;44.27
7337;BME280;54510;42.016;23.098;2022-07-23T00:38:06;-21786.50;;;23.86;44.38
7337;BME280;54510;42.016;23.098;2022-07-23T00:40:32;-21785.41;;;23.82;44.70
7337;BME280;54510;42.016;23.098;2022-07-23T00:42:59;-21784.19;;;23.77;44.49
7337;BME280;54510;42.016;23.098;2022-07-23T00:45:25;-21781.19;;;23.66;44.70
7337;BME280;54510;42.016;23.098;2022-07-23T00:47:50;-21783.38;;;23.74;44.82
7337;BME280;54510;42.016;23.098;2022-07-23T00:50:16;-21779.69;;;23.60;44.64
7337;BME280;54510;42.016;23.098;2022-07-23T00:52:41;-21775.31;;;23.44;44.75
7337;BME280;54510;42.016;23.098;2022-07-23T00:55:08;-21775.84;;;23.46;44.50
7337;BME280;54510;42.016;23.098;2022-07-23T00:57:34;-21779.13;;;23.58;44.12
7337;BME280;54510;42.016;23.098;2022-07-23T01:00:00;-21777.09;;;23.51;44.30
7337;BME280;54510;42.016;23.098;2022-07-23T01:02:27;-21774.91;;;23.43;44.95
7337;BME280;54510;42.016;23.098;2022-07-23T01:04:53;-21770.94;;;23.28;45.24
7337;BME280;54510;42.016;23.098;2022-07-23T01:07:19;-21771.91;;;23.32;45.33
7337;BME280;54510;42.016;23.098;2022-07-23T01:09:45;-21772.72;;;23.35;44.97
7337;BME280;54510;42.016;23.098;2022-07-23T01:12:11;-21764.66;;;23.05;46.09
7337;BME280;54510;42.016;23.098;2022-07-23T01:14:36;-21766.16;;;23.10;45.95
7337;BME280;54510;42.016;23.098;2022-07-23T01:17:02;-21767.13;;;23.14;46.50
7337;BME280;54510;42.016;23.098;2022-07-23T01:19:27;-21767.94;;;23.17;45.99
7337;BME280;54510;42.016;23.098;2022-07-23T01:21:54;-21768.91;;;23.20;45.13
7337;BME280;54510;42.016;23.098;2022-07-23T01:24:20;-21769.31;;;23.22;45.14
7337;BME280;54510;42.016;23.098;2022-07-23T01:26:47;-21770.00;;;23.24;44.93
7337;BME280;54510;42.016;23.098;2022-07-23T01:29:14;-21764.66;;;23.05;46.13
7337;BME280;54510;42.016;23.098;2022-07-23T01:31:40;-21763.72;;;23.01;46.45
7337;BME280;54510;42.016;23.098;2022-07-23T01:34:05;-21764.66;;;23.05;46.24
7337;BME280;54510;42.016;23.098;2022-07-23T01:36:35;-21763.44;;;23.00;45.99
7337;BME280;54510;42.016;23.098;2022-07-23T01:39:03;-21765.47;;;23.08;46.49
7337;BME280;54510;42.016;23.098;2022-07-23T01:41:28;-21762.34;;;22.96;46.81
7337;BME280;54510;42.016;23.098;2022-07-23T01:43:54;-21759.06;;;22.84;46.68
7337;BME280;54510;42.016;23.098;2022-07-23T01:46:19;-21757.56;;;22.78;46.82
7337;BME280;54510;42.016;23.098;2022-07-23T01:48:45;-21755.38;;;22.70;46.87
7337;BME280;54510;42.016;23.098;2022-07-23T01:51:10;-21762.06;;;22.95;46.05
7337;BME280;54510;42.016;23.098;2022-07-23T01:53:36;-21759.59;;;22.86;45.89
7337;BME280;54510;42.016;23.098;2022-07-23T01:56:01;-21751.69;;;22.57;46.66
7337;BME280;54510;42.016;23.098;2022-07-23T01:58:28;-21754.81;;;22.68;47.01
7337;BME280;54510;42.016;23.098;2022-07-23T02:00:54;-21751.69;;;22.57;47.93
7337;BME280;54510;42.016;23.098;2022-07-23T02:03:20;-21751.81;;;22.57;46.62
7337;BME280;54510;42.016;23.098;2022-07-23T02:05:46;-21750.59;;;22.53;46.73
7337;BME280;54510;42.016;23.098;2022-07-23T02:08:11;-21750.72;;;22.53;46.50
7337;BME280;54510;42.016;23.098;2022-07-23T02:10:37;-21749.09;;;22.47;46.84
7337;BME280;54510;42.016;23.098;2022-07-23T02:13:02;-21746.91;;;22.39;47.71
7337;BME280;54510;42.016;23.098;2022-07-23T02:15:28;-21749.34;;;22.48;47.14
7337;BME280;54510;42.016;23.098;2022-07-23T02:17:54;-21752.50;;;22.60;47.25
7337;BME280;54510;42.016;23.098;2022-07-23T02:20:20;-21747.16;;;22.40;47.26
7337;BME280;54510;42.016;23.098;2022-07-23T02:22:45;-21746.09;;;22.36;48.58
7337;BME280;54510;42.016;23.098;2022-07-23T02:25:11;-21744.31;;;22.29;49.64
7337;BME280;54510;42.016;23.098;2022-07-23T02:27:36;-21739.94;;;22.13;50.19
7337;BME280;54510;42.016;23.098;2022-07-23T02:30:03;-21741.03;;;22.17;50.23
7337;BME280;54510;42.016;23.098;2022-07-23T02:32:29;-21741.16;;;22.18;50.26
7337;BME280;54510;42.016;23.098;2022-07-23T02:34:54;-21737.59;;;22.04;51.05
7337;BME280;54510;42.016;23.098;2022-07-23T02:37:19;-21735.00;;;21.95;51.08
7337;BME280;54510;42.016;23.098;2022-07-23T02:39:45;-21734.31;;;21.92;51.16
7337;BME280;54510;42.016;23.098;2022-07-23T02:42:10;-21737.59;;;22.04;51.21
7337;BME280;54510;42.016;23.098;2022-07-23T02:44:36;-21740.75;;;22.16;51.38
7337;BME280;54510;42.016;23.098;2022-07-23T02:47:02;-21741.56;;;22.19;50.83
7337;BME280;54510;42.016;23.098;2022-07-23T02:49:27;-21738.69;;;22.09;51.17
7337;BME280;54510;42.016;23.098;2022-07-23T02:51:53;-21738.97;;;22.10;51.03
7337;BME280;54510;42.016;23.098;2022-07-23T02:54:19;-21740.47;;;22.15;50.48
7337;BME280;54510;42.016;23.098;2022-07-23T02:56:44;-21734.19;;;21.92;49.86
7337;BME280;54510;42.016;23.098;2022-07-23T02:59:10;-21740.06;;;22.14;49.62
7337;BME280;54510;42.016;23.098;2022-07-23T03:01:36;-21739.38;;;22.11;49.72
7337;BME280;54510;42.016;23.098;2022-07-23T03:04:01;-21743.47;;;22.26;49.24
7337;BME280;54510;42.016;23.098;2022-07-23T03:06:27;-21733.09;;;21.88;49.41
7337;BME280;54510;42.016;23.098;2022-07-23T03:08:52;-21739.66;;;22.12;49.51
7337;BME280;54510;42.016;23.098;2022-07-23T03:11:18;-21737.19;;;22.03;49.93
7337;BME280;54510;42.016;23.098;2022-07-23T03:13:43;-21735.81;;;21.98;50.09
7337;BME280;54510;42.016;23.098;2022-07-23T03:16:09;-21734.03;;;21.91;49.31
7337;BME280;54510;42.016;23.098;2022-07-23T03:18:34;-21737.59;;;22.04;48.83
7337;BME280;54510;42.016;23.098;2022-07-23T03:21:00;-21737.75;;;22.05;49.39
7337;BME280;54510;42.016;23.098;2022-07-23T03:23:26;-21736.09;;;21.99;49.79
7337;BME280;54510;42.016;23.098;2022-07-23T03:25:51;-21736.38;;;22.00;48.97
7337;BME280;54510;42.016;23.098;2022-07-23T03:28:18;-21732.13;;;21.84;49.83
7337;BME280;54510;42.016;23.098;2022-07-23T03:30:47;-21731.03;;;21.80;49.94
7337;BME280;54510;42.016;23.098;2022-07-23T03:33:14;-21728.03;;;21.69;50.21
7337;BME280;54510;42.016;23.098;2022-07-23T03:35:42;-21725.00;;;21.58;49.55
7337;BME280;54510;42.016;23.098;2022-07-23T03:38:07;-21727.88;;;21.68;49.38
7337;BME280;54510;42.016;23.098;2022-07-23T03:40:32;-21731.16;;;21.81;49.12
7337;BME280;54510;42.016;23.098;2022-07-23T03:42:58;-21724.88;;;21.57;48.55
7337;BME280;54510;42.016;23.098;2022-07-23T03:45:23;-21726.78;;;21.64;48.90
7337;BME280;54510;42.016;23.098;2022-07-23T03:47:49;-21728.97;;;21.73;49.86
7337;BME280;54510;42.016;23.098;2022-07-23T03:50:14;-21728.72;;;21.72;50.62
7337;BME280;54510;42.016;23.098;2022-07-23T03:52:39;-21731.44;;;21.82;51.03
7337;BME280;54510;42.016;23.098;2022-07-23T03:55:05;-21730.47;;;21.78;51.66
7337;BME280;54510;42.016;23.098;2022-07-23T03:57:31;-21735.00;;;21.95;51.31
7337;BME280;54510;42.016;23.098;2022-07-23T03:59:57;-21735.28;;;21.96;51.27
7337;BME280;54510;42.016;23.098;2022-07-23T04:02:22;-21732.69;;;21.86;51.81
7337;BME280;54510;42.016;23.098;2022-07-23T04:04:48;-21736.91;;;22.02;51.82
7337;BME280;54510;42.016;23.098;2022-07-23T04:07:14;-21738.69;;;22.09;51.23
7337;BME280;54510;42.016;23.098;2022-07-23T04:09:39;-21738.00;;;22.06;51.19
7337;BME280;54510;42.016;23.098;2022-07-23T04:12:08;-21731.16;;;21.81;51.99
7337;BME280;54510;42.016;23.098;2022-07-23T04:14:33;-21725.44;;;21.59;52.06
7337;BME280;54510;42.016;23.098;2022-07-23T04:16:59;-21724.88;;;21.57;51.93
7337;BME280;54510;42.016;23.098;2022-07-23T04:19:25;-21727.63;;;21.67;52.41
7337;BME280;54510;42.016;23.098;2022-07-23T04:21:50;-21728.28;;;21.70;51.91
7337;BME280;54510;42.016;23.098;2022-07-23T04:24:16;-21732.41;;;21.85;52.02
7337;BME280;54510;42.016;23.098;2022-07-23T04:26:42;-21729.53;;;21.75;52.36
7337;BME280;54510;42.016;23.098;2022-07-23T04:29:07;-21732.41;;;21.85;52.03
7337;BME280;54510;42.016;23.098;2022-07-23T04:31:32;-21734.72;;;21.94;51.67
7337;BME280;54510;42.016;23.098;2022-07-23T04:33:58;-21734.19;;;21.92;51.84
7337;BME280;54510;42.016;23.098;2022-07-23T04:36:24;-21741.44;;;22.19;51.37
7337;BME280;54510;42.016;23.098;2022-07-23T04:38:49;-21744.16;;;22.29;50.85
7337;BME280;54510;42.016;23.098;2022-07-23T04:41:15;-21742.13;;;22.21;51.03
7337;BME280;54510;42.016;23.098;2022-07-23T04:43:40;-21739.66;;;22.12;50.99
7337;BME280;54510;42.016;23.098;2022-07-23T04:46:05;-21736.50;;;22.00;50.54
7337;BME280;54510;42.016;23.098;2022-07-23T04:48:31;-21744.97;;;22.32;50.47
7337;BME280;54510;42.016;23.098;2022-07-23T04:50:57;-21748.69;;;22.45;49.89
7337;BME280;54510;42.016;23.098;2022-07-23T04:53:23;-21746.34;;;22.37;49.92
7337;BME280;54510;42.016;23.098;2022-07-23T04:55:48;-21747.03;;;22.39;50.16
7337;BME280;54510;42.016;23.098;2022-07-23T04:58:14;-21748.41;;;22.44;50.08
7337;BME280;54510;42.016;23.098;2022-07-23T05:00:39;-21753.31;;;22.63;49.78
7337;BME280;54510;42.016;23.098;2022-07-23T05:03:05;-21757.97;;;22.80;49.30
7337;BME280;54510;42.016;23.098;2022-07-23T05:05:30;-21756.59;;;22.75;49.41
7337;BME280;54510;42.016;23.098;2022-07-23T05:07:55;-21759.88;;;22.87;49.42
7337;BME280;54510;42.016;23.098;2022-07-23T05:10:21;-21758.94;;;22.83;49.62
7337;BME280;54510;42.016;23.098;2022-07-23T05:12:46;-21764.94;;;23.06;49.25
7337;BME280;54510;42.016;23.098;2022-07-23T05:15:12;-21768.75;;;23.20;48.66
7337;BME280;54510;42.016;23.098;2022-07-23T05:17:37;-21773.13;;;23.36;48.87
7337;BME280;54510;42.016;23.098;2022-07-23T05:20:03;-21772.03;;;23.32;48.51
7337;BME280;54510;42.016;23.098;2022-07-23T05:22:29;-21777.91;;;23.54;48.46
7337;BME280;54510;42.016;23.098;2022-07-23T05:24:54;-21780.09;;;23.62;48.64
7337;BME280;54510;42.016;23.098;2022-07-23T05:27:20;-21782.00;;;23.69;48.66
7337;BME280;54510;42.016;23.098;2022-07-23T05:29:45;-21785.53;;;23.82;48.02
7337;BME280;54510;42.016;23.098;2022-07-23T05:32:11;-21783.50;;;23.75;47.96
7337;BME280;54510;42.016;23.098;2022-07-23T05:34:36;-21787.31;;;23.89;47.72
7337;BME280;54510;42.016;23.098;2022-07-23T05:37:02;-21789.63;;;23.97;47.76
7337;BME280;54510;42.016;23.098;2022-07-23T05:39:27;-21790.88;;;24.02;47.35
7337;BME280;54510;42.016;23.098;2022-07-23T05:41:53;-21791.69;;;24.05;47.32
7337;BME280;54510;42.016;23.098;2022-07-23T05:44:19;-21795.78;;;24.20;46.73
7337;BME280;54510;42.016;23.098;2022-07-23T05:46:46;-21796.06;;;24.21;46.95
7337;BME280;54510;42.016;23.098;2022-07-23T05:49:11;-21799.72;;;24.35;46.89
7337;BME280;54510;42.016;23.098;2022-07-23T05:51:37;-21801.78;;;24.43;46.50
7337;BME280;54510;42.016;23.098;2022-07-23T05:54:02;-21804.50;;;24.53;46.30
7337;BME280;54510;42.016;23.098;2022-07-23T05:56:27;-21804.09;;;24.51;45.86
7337;BME280;54510;42.016;23.098;2022-07-23T05:58:53;-21807.63;;;24.64;45.65
7337;BME280;54510;42.016;23.098;2022-07-23T06:01:18;-21813.22;;;24.85;45.60
7337;BME280;54510;42.016;23.098;2022-07-23T06:03:44;-21808.44;;;24.67;45.55
7337;BME280;54510;42.016;23.098;2022-07-23T06:06:09;-21815.53;;;24.94;45.35
7337;BME280;54510;42.016;23.098;2022-07-23T06:08:35;-21815.66;;;24.94;45.67
7337;BME280;54510;42.016;23.098;2022-07-23T06:11:00;-21817.16;;;25.00;45.50
7337;BME280;54510;42.016;23.098;2022-07-23T06:13:26;-21815.41;;;24.93;45.14
7337;BME280;54510;42.016;23.098;2022-07-23T06:15:51;-21818.13;;;25.03;45.06
7337;BME280;54510;42.016;23.098;2022-07-23T06:18:16;-21819.63;;;25.09;45.00
7337;BME280;54510;42.016;23.098;2022-07-23T06:20:42;-21822.06;;;25.18;45.03
7337;BME280;54510;42.016;23.098;2022-07-23T06:23:07;-21826.84;;;25.36;44.76
7337;BME280;54510;42.016;23.098;2022-07-23T06:25:33;-21828.31;;;25.41;44.33
7337;BME280;54510;42.016;23.098;2022-07-23T06:27:58;-21832.13;;;25.55;44.08
7337;BME280;54510;42.016;23.098;2022-07-23T06:30:25;-21834.31;;;25.64;44.17
7337;BME280;54510;42.016;23.098;2022-07-23T06:32:50;-21836.75;;;25.73;44.04
7337;BME280;54510;42.016;23.098;2022-07-23T06:35:16;-21838.81;;;25.80;43.62
7337;BME280;54510;42.016;23.098;2022-07-23T06:37:42;-21843.28;;;25.97;43.86
7337;BME280;54510;42.016;23.098;2022-07-23T06:40:08;-21845.47;;;26.05;43.33
7337;BME280;54510;42.016;23.098;2022-07-23T06:42:34;-21846.81;;;26.10;43.27
7337;BME280;54510;42.016;23.098;2022-07-23T06:45:03;-21847.50;;;26.13;43.60
7337;BME280;54510;42.016;23.098;2022-07-23T06:47:29;-21851.59;;;26.28;43.21
7337;BME280;54510;42.016;23.098;2022-07-23T06:49:54;-21856.63;;;26.47;42.79
7337;BME280;54510;42.016;23.098;2022-07-23T06:52:19;-21856.88;;;26.48;42.84
7337;BME280;54510;42.016;23.098;2022-07-23T06:54:45;-21858.78;;;26.55;42.63
7337;BME280;54510;42.016;23.098;2022-07-23T06:57:11;-21856.22;;;26.45;42.90
7337;BME280;54510;42.016;23.098;2022-07-23T06:59:36;-21861.91;;;26.66;42.84
7337;BME280;54510;42.016;23.098;2022-07-23T07:02:06;-21864.75;;;26.77;42.55
7337;BME280;54510;42.016;23.098;2022-07-23T07:04:31;-21867.63;;;26.88;42.66
7337;BME280;54510;42.016;23.098;2022-07-23T07:06:57;-21867.47;;;26.87;42.66
7337;BME280;54510;42.016;23.098;2022-07-23T07:09:22;-21874.00;;;27.11;41.99
7337;BME280;54510;42.016;23.098;2022-07-23T07:11:48;-21877.00;;;27.23;41.86
7337;BME280;54510;42.016;23.098;2022-07-23T07:14:13;-21879.97;;;27.34;41.72
7337;BME280;54510;42.016;23.098;2022-07-23T07:16:39;-21880.66;;;27.36;41.91
7337;BME280;54510;42.016;23.098;2022-07-23T07:19:04;-21887.72;;;27.63;41.02
7337;BME280;54510;42.016;23.098;2022-07-23T07:21:30;-21889.19;;;27.68;41.12
7337;BME280;54510;42.016;23.098;2022-07-23T07:23:55;-21887.84;;;27.63;40.91
7337;BME280;54510;42.016;23.098;2022-07-23T07:26:21;-21890.00;;;27.71;40.65
7337;BME280;54510;42.016;23.098;2022-07-23T07:28:46;-21889.75;;;27.70;40.03
7337;BME280;54510;42.016;23.098;2022-07-23T07:31:12;-21895.84;;;27.93;39.67
7337;BME280;54510;42.016;23.098;2022-07-23T07:33:37;-21894.88;;;27.89;39.25
7337;BME280;54510;42.016;23.098;2022-07-23T07:36:03;-21898.94;;;28.05;40.12
7337;BME280;54510;42.016;23.098;2022-07-23T07:38:29;-21902.50;;;28.18;40.18
7337;BME280;54510;42.016;23.098;2022-07-23T07:40:54;-21901.94;;;28.16;39.34
7337;BME280;54510;42.016;23.098;2022-07-23T07:43:20;-21903.97;;;28.23;38.61
7337;BME280;54510;42.016;23.098;2022-07-23T07:45:46;-21903.28;;;28.21;38.92
7337;BME280;54510;42.016;23.098;2022-07-23T07:48:11;-21904.91;;;28.27;38.31
7337;BME280;54510;42.016;23.098;2022-07-23T07:50:37;-21904.25;;;28.24;37.33
7337;BME280;54510;42.016;23.098;2022-07-23T07:53:03;-21908.97;;;28.42;37.98
7337;BME280;54510;42.016;23.098;2022-07-23T07:55:28;-21910.75;;;28.49;37.79
7337;BME280;54510;42.016;23.098;2022-07-23T07:57:54;-21912.09;;;28.54;38.74
7337;BME280;54510;42.016;23.098;2022-07-23T08:00:19;-21910.59;;;28.48;38.52
7337;BME280;54510;42.016;23.098;2022-07-23T08:02:50;-21917.13;;;28.73;38.07
7337;BME280;54510;42.016;23.098;2022-07-23T08:05:21;-21919.00;;;28.80;38.13
7337;BME280;54510;42.016;23.098;2022-07-23T08:07:47;-21923.47;;;28.96;37.87
7337;BME280;54510;42.016;23.098;2022-07-23T08:10:12;-21922.00;;;28.91;37.46
7337;BME280;54510;42.016;23.098;2022-07-23T08:12:48;-21926.03;;;29.06;36.53
7337;BME280;54510;42.016;23.098;2022-07-23T08:15:15;-21927.66;;;29.12;36.38
7337;BME280;54510;42.016;23.098;2022-07-23T08:17:42;-21937.16;;;29.48;36.16
7337;BME280;54510;42.016;23.098;2022-07-23T08:20:09;-21936.88;;;29.47;36.03
7337;BME280;54510;42.016;23.098;2022-07-23T08:25:11;-21937.00;;;29.47;34.63
7337;BME280;54510;42.016;23.098;2022-07-23T08:27:37;-21940.25;;;29.59;35.39
7337;BME280;54510;42.016;23.098;2022-07-23T08:30:03;-21942.16;;;29.66;34.84
7337;BME280;54510;42.016;23.098;2022-07-23T08:32:29;-21941.47;;;29.64;34.04
7337;BME280;54510;42.016;23.098;2022-07-23T08:34:54;-21947.53;;;29.87;33.52
7337;BME280;54510;42.016;23.098;2022-07-23T08:37:19;-21952.16;;;30.04;33.64
7337;BME280;54510;42.016;23.098;2022-07-23T08:39:45;-21956.34;;;30.19;33.69
7337;BME280;54510;42.016;23.098;2022-07-23T08:42:13;-21959.84;;;30.33;33.26
7337;BME280;54510;42.016;23.098;2022-07-23T08:44:42;-21956.59;;;30.20;34.03
7337;BME280;54510;42.016;23.098;2022-07-23T08:47:10;-21964.31;;;30.49;33.13
7337;BME280;54510;42.016;23.098;2022-07-23T08:49:36;-21968.75;;;30.66;33.61
7337;BME280;54510;42.016;23.098;2022-07-23T08:52:02;-21967.00;;;30.59;32.27
7337;BME280;54510;42.016;23.098;2022-07-23T08:54:27;-21967.13;;;30.60;32.19
7337;BME280;54510;42.016;23.098;2022-07-23T08:56:53;-21970.66;;;30.73;32.51
7337;BME280;54510;42.016;23.098;2022-07-23T08:59:18;-21973.34;;;30.83;33.06
7337;BME280;54510;42.016;23.098;2022-07-23T09:01:44;-21974.41;;;30.87;32.89
7337;BME280;54510;42.016;23.098;2022-07-23T09:04:09;-21974.81;;;30.89;32.41
7337;BME280;54510;42.016;23.098;2022-07-23T09:06:38;-21978.59;;;31.03;32.26
7337;BME280;54510;42.016;23.098;2022-07-23T09:09:19;-21982.78;;;31.19;32.42
7337;BME280;54510;42.016;23.098;2022-07-23T09:11:46;-21986.03;;;31.31;32.38
7337;BME280;54510;42.016;23.098;2022-07-23T09:14:12;-21988.19;;;31.39;32.42
7337;BME280;54510;42.016;23.098;2022-07-23T09:16:37;-21988.44;;;31.40;31.75
7337;BME280;54510;42.016;23.098;2022-07-23T09:19:04;-21992.22;;;31.54;31.64
7337;BME280;54510;42.016;23.098;2022-07-23T09:21:32;-21992.22;;;31.54;32.00
7337;BME280;54510;42.016;23.098;2022-07-23T09:24:12;-21992.50;;;31.55;31.92
7337;BME280;54510;42.016;23.098;2022-07-23T09:26:42;-21992.63;;;31.56;31.63
7337;BME280;54510;42.016;23.098;2022-07-23T09:29:25;-21998.97;;;31.80;30.99
7337;BME280;54510;42.016;23.098;2022-07-23T09:32:02;-22001.94;;;31.91;31.74
7337;BME280;54510;42.016;23.098;2022-07-23T09:34:35;-22012.16;;;32.29;31.08
7337;BME280;54510;42.016;23.098;2022-07-23T09:37:14;-22017.41;;;32.49;30.49
7337;BME280;54510;42.016;23.098;2022-07-23T09:39:41;-22018.09;;;32.51;30.93
7337;BME280;54510;42.016;23.098;2022-07-23T09:42:20;-22021.03;;;32.63;30.46
7337;BME280;54510;42.016;23.098;2022-07-23T09:44:54;-22021.56;;;32.65;31.67
7337;BME280;54510;42.016;23.098;2022-07-23T09:47:21;-22017.94;;;32.51;31.61
7337;BME280;54510;42.016;23.098;2022-07-23T09:50:08;-22020.63;;;32.61;30.67
7337;BME280;54510;42.016;23.098;2022-07-23T09:52:43;-22025.75;;;32.80;30.66
7337;BME280;54510;42.016;23.098;2022-07-23T09:55:09;-22026.44;;;32.83;29.70
7337;BME280;54510;42.016;23.098;2022-07-23T09:57:35;-22036.09;;;33.19;29.32
7337;BME280;54510;42.016;23.098;2022-07-23T10:00:03;-22046.19;;;33.57;28.54
7337;BME280;54510;42.016;23.098;2022-07-23T10:02:32;-22047.00;;;33.60;27.85
7337;BME280;54510;42.016;23.098;2022-07-23T10:04:59;-22048.06;;;33.64;28.55
7337;BME280;54510;42.016;23.098;2022-07-23T10:07:26;-22052.75;;;33.82;28.24
7337;BME280;54510;42.016;23.098;2022-07-23T10:09:52;-22058.66;;;34.04;27.86
7337;BME280;54510;42.016;23.098;2022-07-23T10:12:19;-22069.13;;;34.44;27.04
7337;BME280;54510;42.016;23.098;2022-07-23T10:14:45;-22068.88;;;34.43;27.70
7337;BME280;54510;42.016;23.098;2022-07-23T10:17:11;-22067.00;;;34.36;26.98
7337;BME280;54510;42.016;23.098;2022-07-23T10:19:37;-22081.47;;;34.91;26.80
7337;BME280;54510;42.016;23.098;2022-07-23T10:22:07;-22070.06;;;34.47;27.59
7337;BME280;54510;42.016;23.098;2022-07-23T10:35:36;-22080.94;;;34.88;26.45
7337;BME280;54510;42.016;23.098;2022-07-23T10:40:34;-22080.28;;;34.86;23.97
7337;BME280;54510;42.016;23.098;2022-07-23T10:43:00;-22085.09;;;35.04;25.33
7337;BME280;54510;42.016;23.098;2022-07-23T10:47:51;-22094.06;;;35.38;23.23
7337;BME280;54510;42.016;23.098;2022-07-23T10:50:29;-22092.06;;;35.31;22.75
7337;BME280;54510;42.016;23.098;2022-07-23T10:57:57;-22092.72;;;35.33;20.87
7337;BME280;54510;42.016;23.098;2022-07-23T11:00:27;-22097.00;;;35.49;21.21
7337;BME280;54510;42.016;23.098;2022-07-23T11:02:56;-22101.16;;;35.65;21.48
7337;BME280;54510;42.016;23.098;2022-07-23T11:05:25;-22107.19;;;35.88;20.26
7337;BME280;54510;42.016;23.098;2022-07-23T11:34:30;-22135.25;;;36.94;19.27
7337;BME280;54510;42.016;23.098;2022-07-23T11:36:57;-22136.31;;;36.98;19.52
7337;BME280;54510;42.016;23.098;2022-07-23T11:39:25;-22130.97;;;36.78;18.21
7337;BME280;54510;42.016;23.098;2022-07-23T11:41:52;-22128.31;;;36.68;19.34
7337;BME280;54510;42.016;23.098;2022-07-23T11:47:02;-22139.53;;;37.10;19.17
7337;BME280;54510;42.016;23.098;2022-07-23T11:49:28;-22144.06;;;37.28;19.17
7337;BME280;54510;42.016;23.098;2022-07-23T11:52:06;-22142.88;;;37.23;17.92
7337;BME280;54510;42.016;23.098;2022-07-23T11:54:58;-22138.72;;;37.07;17.66
7337;BME280;54510;42.016;23.098;2022-07-23T11:57:35;-22145.13;;;37.32;18.48
7337;BME280;54510;42.016;23.098;2022-07-23T12:00:45;-22151.00;;;37.54;18.10
7337;BME280;54510;42.016;23.098;2022-07-23T12:02:54;-22154.22;;;37.66;19.16
7337;BME280;54510;42.016;23.098;2022-07-23T12:05:26;-22158.59;;;37.83;18.44
7337;BME280;54510;42.016;23.098;2022-07-23T12:07:53;-22153.94;;;37.65;17.68
7337;BME280;54510;42.016;23.098;2022-07-23T12:10:22;-22162.22;;;37.96;18.77
7337;BME280;54510;42.016;23.098;2022-07-23T12:12:57;-22161.00;;;37.92;17.96
7337;BME280;54510;42.016;23.098;2022-07-23T12:15:28;-22161.28;;;37.93;18.47
7337;BME280;54510;42.016;23.098;2022-07-23T12:17:55;-22165.28;;;38.08;18.33
7337;BME280;54510;42.016;23.098;2022-07-23T12:20:24;-22172.19;;;38.34;18.19
7337;BME280;54510;42.016;23.098;2022-07-23T12:22:53;-22178.47;;;38.58;18.33
7337;BME280;54510;42.016;23.098;2022-07-23T12:25:23;-22190.72;;;39.05;18.57
7337;BME280;54510;42.016;23.098;2022-07-23T12:33:04;-22189.38;;;39.00;16.94
7337;BME280;54510;42.016;23.098;2022-07-23T12:35:35;-22191.50;;;39.08;16.86
7337;BME280;54510;42.016;23.098;2022-07-23T12:38:07;-22190.03;;;39.02;16.56
7337;BME280;54510;42.016;23.098;2022-07-23T12:43:07;-22190.84;;;39.05;17.67
7337;BME280;54510;42.016;23.098;2022-07-23T12:46:06;-22191.78;;;39.09;17.09
7337;BME280;54510;42.016;23.098;2022-07-23T12:48:39;-22192.56;;;39.12;16.60
7337;BME280;54510;42.016;23.098;2022-07-23T12:53:46;-22195.75;;;39.24;17.03
7337;BME280;54510;42.016;23.098;2022-07-23T12:56:30;-22198.16;;;39.33;16.48
7337;BME280;54510;42.016;23.098;2022-07-23T13:01:25;-22204.66;;;39.58;15.79
7337;BME280;54510;42.016;23.098;2022-07-23T13:06:33;-22213.84;;;39.93;15.79
7337;BME280;54510;42.016;23.098;2022-07-23T13:08:59;-22214.38;;;39.95;16.04
7337;BME280;54510;42.016;23.098;2022-07-23T13:11:25;-22211.31;;;39.83;15.35
7337;BME280;54510;42.016;23.098;2022-07-23T13:13:51;-22208.91;;;39.74;15.91
7337;BME280;54510;42.016;23.098;2022-07-23T13:16:17;-22226.06;;;40.40;15.95
7337;BME280;54510;42.016;23.098;2022-07-23T13:18:42;-22232.03;;;40.62;15.67
7337;BME280;54510;42.016;23.098;2022-07-23T13:21:08;-22232.28;;;40.63;15.06
7337;BME280;54510;42.016;23.098;2022-07-23T13:23:34;-22229.25;;;40.52;15.88
7337;BME280;54510;42.016;23.098;2022-07-23T13:25:59;-22234.81;;;40.73;15.70
7337;BME280;54510;42.016;23.098;2022-07-23T13:28:25;-22235.59;;;40.76;15.34
7337;BME280;54510;42.016;23.098;2022-07-23T13:30:51;-22243.56;;;41.07;14.89
7337;BME280;54510;42.016;23.098;2022-07-23T13:33:22;-22243.81;;;41.08;14.44
7337;BME280;54510;42.016;23.098;2022-07-23T13:35:48;-22240.63;;;40.95;14.10
7337;BME280;54510;42.016;23.098;2022-07-23T13:38:14;-22240.50;;;40.95;14.35
7337;BME280;54510;42.016;23.098;2022-07-23T13:40:41;-22240.38;;;40.94;15.26
7337;BME280;54510;42.016;23.098;2022-07-23T13:43:12;-22241.97;;;41.00;14.48
7337;BME280;54510;42.016;23.098;2022-07-23T13:45:38;-22243.03;;;41.04;14.73
7337;BME280;54510;42.016;23.098;2022-07-23T13:48:05;-22246.06;;;41.16;14.60
7337;BME280;54510;42.016;23.098;2022-07-23T13:50:32;-22245.41;;;41.14;14.52
7337;BME280;54510;42.016;23.098;2022-07-23T13:53:04;-22248.19;;;41.24;14.96
7337;BME280;54510;42.016;23.098;2022-07-23T13:55:30;-22247.94;;;41.23;15.16
7337;BME280;54510;42.016;23.098;2022-07-23T13:57:56;-22250.19;;;41.32;14.36